createdAt,value
2022-09-02T00:01:27.653Z,6.03
2022-09-02T00:04:00.319Z,4.28
2022-09-02T00:06:28.153Z,4.70
2022-09-02T00:08:55.717Z,3.50
2022-09-02T00:11:27.512Z,3.03
2022-09-02T00:13:57.285Z,2.72
2022-09-02T00:16:25.310Z,2.83
2022-09-02T00:18:53.529Z,2.22
2022-09-02T00:21:21.337Z,2.58
2022-09-02T00:23:49.183Z,2.35
2022-09-02T00:26:16.551Z,2.65
2022-09-02T00:28:51.213Z,2.47
2022-09-02T00:31:27.652Z,2.30
2022-09-02T00:33:55.314Z,2.50
2022-09-02T00:36:22.083Z,2.70
2022-09-02T00:38:48.817Z,2.58
2022-09-02T00:41:15.594Z,2.40
2022-09-02T00:44:05.039Z,2.60
2022-09-02T00:46:33.651Z,2.00
2022-09-02T00:49:14.204Z,2.70
2022-09-02T00:52:03.983Z,2.22
2022-09-02T00:54:34.569Z,2.55
2022-09-02T00:57:06.250Z,2.70
2022-09-02T00:59:58.634Z,2.38
2022-09-02T01:02:31.624Z,2.58
2022-09-02T01:05:04.002Z,2.85
2022-09-02T01:07:34.400Z,2.60
2022-09-02T01:10:02.463Z,2.38
2022-09-02T01:12:32.295Z,2.30
2022-09-02T01:14:59.435Z,2.40
2022-09-02T01:17:26.758Z,2.30
2022-09-02T01:20:00.184Z,2.45
2022-09-02T01:22:31.189Z,2.40
2022-09-02T01:25:04.907Z,2.72
2022-09-02T01:27:31.938Z,2.65
2022-09-02T01:30:00.190Z,2.50
2022-09-02T01:32:29.125Z,2.53
2022-09-02T01:34:55.868Z,2.50
2022-09-02T01:37:22.671Z,2.47
2022-09-02T01:39:49.826Z,2.55
2022-09-02T01:42:16.544Z,2.67
2022-09-02T01:44:46.134Z,2.50
2022-09-02T01:47:16.993Z,2.08
2022-09-02T01:49:46.543Z,2.50
2022-09-02T01:52:14.736Z,2.47
2022-09-02T01:54:41.582Z,2.35
2022-09-02T01:57:08.956Z,2.05
2022-09-02T01:59:35.681Z,2.10
2022-09-02T02:02:03.571Z,2.13
2022-09-02T02:04:31.246Z,2.00
2022-09-02T02:06:58.133Z,2.10
2022-09-02T02:09:25.353Z,2.25
2022-09-02T02:11:53.439Z,2.00
2022-09-02T02:14:20.629Z,2.38
2022-09-02T02:16:50.705Z,2.25
2022-09-02T02:19:18.210Z,2.65
2022-09-02T02:21:44.961Z,2.05
2022-09-02T02:24:11.872Z,1.95
2022-09-02T02:26:38.696Z,2.17
2022-09-02T02:29:06.516Z,2.05
2022-09-02T02:31:33.676Z,2.15
2022-09-02T02:34:00.405Z,2.10
2022-09-02T02:36:27.354Z,2.17
2022-09-02T02:38:55.002Z,2.00
2022-09-02T02:41:22.007Z,1.98
2022-09-02T02:43:49.710Z,1.83
2022-09-02T02:46:16.731Z,2.00
2022-09-02T02:48:43.523Z,1.90
2022-09-02T02:51:10.662Z,2.08
2022-09-02T02:53:38.369Z,1.83
2022-09-02T02:56:06.166Z,1.90
2022-09-02T02:58:33.058Z,2.38
2022-09-02T03:01:01.799Z,2.03
2022-09-02T03:03:29.708Z,1.75
2022-09-02T03:05:58.043Z,2.20
2022-09-02T03:08:28.099Z,1.92
2022-09-02T03:10:56.194Z,1.80
2022-09-02T03:13:29.396Z,1.77
2022-09-02T03:16:00.277Z,1.85
2022-09-02T03:18:27.214Z,1.90
2022-09-02T03:20:53.918Z,1.90
2022-09-02T03:23:20.849Z,1.70
2022-09-02T03:25:50.427Z,1.80
2022-09-02T03:28:26.691Z,2.10
2022-09-02T03:30:54.165Z,2.13
2022-09-02T03:33:22.513Z,2.15
2022-09-02T03:35:49.403Z,2.22
2022-09-02T03:38:16.133Z,2.00
2022-09-02T03:40:44.824Z,1.73
2022-09-02T03:43:11.786Z,2.30
2022-09-02T03:45:41.680Z,1.85
2022-09-02T03:48:13.322Z,1.88
2022-09-02T03:50:43.880Z,1.85
2022-09-02T03:53:18.330Z,1.67
2022-09-02T03:55:49.472Z,1.65
2022-09-02T03:58:18.252Z,2.10
2022-09-02T04:00:52.061Z,1.80
2022-09-02T04:03:20.791Z,1.92
2022-09-02T04:05:50.678Z,2.10
2022-09-02T04:08:19.112Z,1.85
2022-09-02T04:10:46.537Z,1.73
2022-09-02T04:13:13.593Z,1.63
2022-09-02T04:15:44.253Z,2.05
2022-09-02T04:18:12.296Z,2.00
2022-09-02T04:20:40.343Z,2.08
2022-09-02T04:23:08.099Z,1.88
2022-09-02T04:25:40.711Z,1.90
2022-09-02T04:28:08.484Z,2.05
2022-09-02T04:30:38.658Z,2.15
2022-09-02T04:33:06.222Z,1.85
2022-09-02T04:35:35.327Z,1.60
2022-09-02T04:38:03.306Z,1.70
2022-09-02T04:40:31.451Z,2.42
2022-09-02T04:42:59.390Z,2.10
2022-09-02T04:45:29.777Z,2.00
2022-09-02T04:47:57.613Z,2.20
2022-09-02T04:50:24.833Z,1.80
2022-09-02T04:53:10.027Z,1.77
2022-09-02T04:55:40.735Z,2.22
2022-09-02T04:58:10.594Z,1.73
2022-09-02T05:00:39.727Z,1.77
2022-09-02T05:03:11.726Z,1.83
2022-09-02T05:05:40.559Z,1.98
2022-09-02T05:08:10.021Z,2.10
2022-09-02T05:10:39.977Z,1.55
2022-09-02T05:13:06.923Z,1.75
2022-09-02T05:15:38.437Z,1.95
2022-09-02T05:18:07.554Z,1.75
2022-09-02T05:20:34.341Z,2.08
2022-09-02T05:23:02.073Z,1.80
2022-09-02T05:25:28.786Z,2.00
2022-09-02T05:27:56.025Z,1.77
2022-09-02T05:30:24.276Z,2.20
2022-09-02T05:32:51.802Z,2.47
2022-09-02T05:35:18.728Z,2.23
2022-09-02T05:37:45.605Z,2.17
2022-09-02T05:40:14.792Z,2.00
2022-09-02T05:42:43.560Z,2.15
2022-09-02T05:45:11.921Z,2.25
2022-09-02T05:47:43.386Z,1.98
2022-09-02T05:50:10.725Z,1.98
2022-09-02T05:52:43.097Z,2.10
2022-09-02T05:55:10.065Z,2.17
2022-09-02T05:57:38.971Z,2.00
2022-09-02T06:00:08.767Z,1.90
2022-09-02T06:02:43.807Z,2.10
2022-09-02T06:05:20.441Z,1.75
2022-09-02T06:07:54.359Z,1.98
2022-09-02T06:10:22.975Z,2.20
2022-09-02T06:12:50.347Z,2.20
2022-09-02T06:15:20.441Z,2.03
2022-09-02T06:17:48.286Z,1.90
2022-09-02T06:20:16.039Z,2.15
2022-09-02T06:22:44.247Z,2.42
2022-09-02T06:25:11.896Z,2.45
2022-09-02T06:27:40.548Z,2.00
2022-09-02T06:30:09.189Z,1.75
2022-09-02T06:32:35.876Z,1.98
2022-09-02T06:35:08.151Z,1.75
2022-09-02T06:37:35.646Z,1.90
2022-09-02T06:40:04.829Z,2.00
2022-09-02T06:42:32.555Z,1.88
2022-09-02T06:45:25.913Z,1.70
2022-09-02T06:47:55.315Z,1.88
2022-09-02T06:50:22.380Z,1.80
2022-09-02T06:52:49.900Z,1.52
2022-09-02T06:55:18.097Z,1.70
2022-09-02T06:57:44.844Z,1.67
2022-09-02T07:00:13.794Z,1.50
2022-09-02T07:02:42.877Z,1.80
2022-09-02T07:05:10.434Z,1.40
2022-09-02T07:07:39.798Z,1.58
2022-09-02T07:10:13.411Z,1.70
2022-09-02T07:12:44.611Z,1.50
2022-09-02T07:15:14.703Z,1.40
2022-09-02T07:17:42.980Z,1.67
2022-09-02T07:20:15.433Z,1.55
2022-09-02T07:22:47.203Z,1.67
2022-09-02T07:25:17.144Z,1.52
2022-09-02T07:27:44.580Z,1.70
2022-09-02T07:30:12.921Z,1.70
2022-09-02T07:32:42.798Z,2.28
2022-09-02T07:35:10.866Z,1.60
2022-09-02T07:37:42.007Z,1.60
2022-09-02T07:40:11.526Z,1.60
2022-09-02T07:42:39.213Z,1.70
2022-09-02T07:45:07.184Z,1.40
2022-09-02T07:47:35.661Z,1.52
2022-09-02T07:50:22.174Z,1.42
2022-09-02T07:52:58.538Z,1.80
2022-09-02T07:55:31.152Z,1.75
2022-09-02T07:57:59.585Z,1.30
2022-09-02T08:00:27.767Z,1.50
2022-09-02T08:02:58.554Z,1.60
2022-09-02T08:05:32.493Z,1.75
2022-09-02T08:08:00.456Z,1.58
2022-09-02T08:10:29.704Z,1.58
2022-09-02T08:12:58.178Z,2.05
2022-09-02T08:15:28.613Z,1.77
2022-09-02T08:17:57.295Z,1.50
2022-09-02T08:20:24.082Z,1.70
2022-09-02T08:23:00.822Z,1.15
2022-09-02T08:25:37.693Z,1.88
2022-09-02T08:28:05.030Z,1.77
2022-09-02T08:30:31.992Z,1.45
2022-09-02T08:32:58.697Z,1.98
2022-09-02T08:35:26.006Z,1.38
2022-09-02T08:37:53.093Z,1.38
2022-09-02T08:40:27.948Z,1.50
2022-09-02T08:42:56.532Z,1.50
2022-09-02T08:45:39.058Z,1.33
2022-09-02T08:48:21.303Z,1.60
2022-09-02T08:50:52.735Z,1.42
2022-09-02T08:53:36.153Z,1.63
2022-09-02T08:56:06.390Z,1.75
2022-09-02T08:58:47.120Z,1.70
2022-09-02T09:01:18.312Z,1.42
2022-09-02T09:04:11.451Z,1.77
2022-09-02T09:07:08.482Z,6.40
2022-09-02T09:09:49.479Z,22.17
2022-09-02T09:12:31.411Z,5.97
2022-09-02T09:15:11.613Z,11.68
2022-09-02T09:17:51.626Z,11.65
2022-09-02T09:20:20.554Z,8.30
2022-09-02T09:22:49.650Z,2.25
2022-09-02T09:25:20.370Z,4.95
2022-09-02T09:27:47.125Z,7.47
2022-09-02T09:30:15.496Z,8.60
2022-09-02T09:32:49.407Z,3.65
2022-09-02T09:35:18.006Z,2.92
2022-09-02T09:37:50.077Z,2.10
2022-09-02T09:40:23.291Z,2.10
2022-09-02T09:42:55.240Z,1.38
2022-09-02T09:45:32.936Z,1.85
2022-09-02T09:48:38.274Z,1.88
2022-09-02T09:51:04.829Z,10.45
2022-09-02T09:53:34.091Z,6.72
2022-09-02T09:56:23.454Z,8.85
2022-09-02T09:58:51.243Z,18.98
2022-09-02T10:01:24.226Z,5.70
2022-09-02T10:04:32.405Z,4.90
2022-09-02T10:06:55.198Z,3.50
2022-09-02T10:09:31.712Z,9.43
2022-09-02T10:12:07.507Z,3.97
2022-09-02T10:14:44.441Z,2.00
2022-09-02T10:17:40.411Z,7.45
2022-09-02T10:20:13.051Z,3.60
2022-09-02T10:23:02.589Z,2.10
2022-09-02T10:25:42.563Z,1.40
2022-09-02T10:28:27.644Z,1.58
2022-09-02T10:31:07.866Z,1.35
2022-09-02T10:33:57.310Z,1.30
2022-09-02T10:36:41.938Z,1.48
2022-09-02T10:39:27.295Z,1.10
2022-09-02T10:42:03.513Z,1.25
2022-09-02T10:44:33.972Z,1.40
2022-09-02T10:47:20.908Z,1.10
2022-09-02T10:50:07.788Z,1.60
2022-09-02T10:52:53.659Z,1.20
2022-09-02T10:56:00.364Z,1.38
2022-09-02T10:58:38.135Z,1.60
2022-09-02T11:01:07.299Z,1.67
2022-09-02T11:03:41.796Z,1.83
2022-09-02T11:06:18.807Z,1.58
2022-09-02T11:09:02.699Z,1.45
2022-09-02T11:11:46.867Z,1.33
2022-09-02T11:14:22.550Z,1.27
2022-09-02T11:17:14.898Z,1.30
2022-09-02T11:19:55.624Z,1.50
2022-09-02T11:22:39.337Z,0.90
2022-09-02T11:25:15.481Z,1.40
2022-09-02T11:27:48.971Z,1.40
2022-09-02T11:30:21.562Z,1.48
2022-09-02T11:32:55.558Z,1.00
2022-09-02T11:35:28.890Z,1.73
2022-09-02T11:38:07.569Z,1.23
2022-09-02T11:40:43.113Z,1.15
2022-09-02T11:43:49.430Z,1.10
2022-09-02T11:46:54.993Z,1.23
2022-09-02T11:49:37.146Z,1.30
2022-09-02T11:52:03.699Z,1.10
2022-09-02T11:55:02.766Z,1.10
2022-09-02T11:57:32.883Z,1.52
2022-09-02T11:59:59.429Z,1.25
2022-09-02T12:02:41.098Z,1.17
2022-09-02T12:05:32.499Z,1.30
2022-09-02T12:08:28.631Z,1.38
2022-09-02T12:10:59.999Z,1.40
2022-09-02T12:13:43.423Z,1.30
2022-09-02T12:16:15.433Z,1.45
2022-09-02T12:19:07.279Z,1.30
2022-09-02T12:21:39.280Z,1.48
2022-09-02T12:24:10.398Z,5.07
2022-09-02T12:26:37.528Z,12.77
2022-09-02T12:29:31.317Z,17.92
2022-09-02T12:31:58.903Z,15.38
2022-09-02T12:34:25.517Z,16.40
2022-09-02T12:36:57.138Z,39.78
2022-09-02T12:39:30.484Z,5.45
2022-09-02T12:42:07.774Z,4.15
2022-09-02T12:44:56.305Z,7.00
2022-09-02T12:47:41.471Z,15.23
2022-09-02T12:50:20.838Z,34.65
2022-09-02T12:52:49.511Z,8.82
2022-09-02T12:55:28.638Z,3.45
2022-09-02T12:58:16.828Z,3.65
2022-09-02T13:00:46.385Z,1.60
2022-09-02T13:03:35.481Z,1.30
2022-09-02T13:06:08.147Z,1.05
2022-09-02T13:09:01.390Z,0.98
2022-09-02T13:11:46.585Z,1.15
2022-09-02T13:14:28.132Z,1.30
2022-09-02T13:20:39.126Z,0.93
2022-09-02T13:23:14.982Z,1.20
2022-09-02T13:26:08.791Z,1.40
2022-09-02T13:29:13.224Z,1.00
2022-09-02T13:31:40.276Z,1.95
2022-09-02T13:34:13.875Z,2.65
2022-09-02T13:36:45.298Z,1.92
2022-09-02T13:39:19.034Z,1.80
2022-09-02T13:41:46.098Z,1.35
2022-09-02T13:44:29.494Z,1.35
2022-09-02T13:47:20.702Z,1.30
2022-09-02T13:49:51.163Z,1.60
2022-09-02T13:52:51.129Z,1.40
2022-09-02T13:55:13.946Z,1.20
2022-09-02T13:57:45.959Z,1.00
2022-09-02T14:00:17.011Z,1.58
2022-09-02T14:02:57.421Z,1.55
2022-09-02T14:05:25.527Z,1.27
2022-09-02T14:07:56.530Z,1.70
2022-09-02T14:10:27.144Z,1.42
2022-09-02T14:12:56.342Z,1.20
2022-09-02T14:15:29.622Z,1.40
2022-09-02T14:18:18.396Z,1.30
2022-09-02T14:21:10.763Z,1.38
2022-09-02T14:23:47.722Z,1.52
2022-09-02T14:26:23.862Z,10.77
2022-09-02T14:28:52.281Z,19.67
2022-09-02T14:31:30.634Z,17.85
2022-09-02T14:33:58.253Z,20.17
2022-09-02T14:36:29.755Z,9.52
2022-09-02T14:39:07.576Z,7.28
2022-09-02T14:41:38.371Z,14.73
2022-09-02T14:44:12.293Z,6.60
2022-09-02T14:46:55.754Z,14.05
2022-09-02T14:49:39.819Z,10.00
2022-09-02T14:52:18.037Z,3.85
2022-09-02T14:54:48.509Z,2.03
2022-09-02T14:57:24.312Z,2.65
2022-09-02T14:59:52.859Z,2.40
2022-09-02T15:02:28.580Z,1.75
2022-09-02T15:04:57.342Z,1.40
2022-09-02T15:07:25.242Z,1.45
2022-09-02T15:09:52.540Z,1.42
2022-09-02T15:12:32.977Z,1.40
2022-09-02T15:15:00.243Z,1.05
2022-09-02T15:17:29.427Z,1.42
2022-09-02T15:19:56.684Z,1.40
2022-09-02T15:22:24.051Z,1.40
2022-09-02T15:24:51.998Z,1.40
2022-09-02T15:27:20.220Z,0.88
2022-09-02T15:29:49.277Z,1.15
2022-09-02T15:32:16.325Z,1.05
2022-09-02T15:34:43.567Z,1.40
2022-09-02T15:37:13.037Z,1.20
2022-09-02T15:39:40.661Z,1.20
2022-09-02T15:42:07.522Z,1.75
2022-09-02T15:44:34.194Z,1.15
2022-09-02T15:47:00.852Z,1.27
2022-09-02T15:49:27.749Z,1.30
2022-09-02T15:51:55.122Z,1.38
2022-09-02T15:54:23.692Z,1.13
2022-09-02T15:56:55.472Z,1.48
2022-09-02T15:59:22.548Z,1.33
2022-09-02T16:01:55.444Z,1.15
2022-09-02T16:04:23.351Z,1.45
2022-09-02T16:06:54.751Z,1.65
2022-09-02T16:09:22.212Z,1.30
2022-09-02T16:11:52.273Z,1.17
2022-09-02T16:14:21.293Z,1.60
2022-09-02T16:16:49.946Z,1.73
2022-09-02T16:19:21.253Z,1.25
2022-09-02T16:21:49.366Z,1.35
2022-09-02T16:24:16.149Z,1.40
2022-09-02T16:26:42.920Z,1.15
2022-09-02T16:29:15.910Z,1.10
2022-09-02T16:31:45.880Z,1.70
2022-09-02T16:34:24.028Z,1.25
2022-09-02T16:36:51.203Z,1.33
2022-09-02T16:39:18.572Z,1.23
2022-09-02T16:41:51.529Z,1.40
2022-09-02T16:44:20.643Z,1.02
2022-09-02T16:46:49.387Z,1.40
2022-09-02T16:49:18.381Z,1.38
2022-09-02T16:51:52.509Z,1.23
2022-09-02T16:54:30.763Z,1.45
2022-09-02T16:57:00.122Z,1.30
2022-09-02T16:59:27.301Z,1.38
2022-09-02T17:01:54.100Z,1.13
2022-09-02T17:04:20.860Z,1.20
2022-09-02T17:06:47.667Z,1.77
2022-09-02T17:09:14.447Z,1.10
2022-09-02T17:11:42.495Z,1.48
2022-09-02T17:14:16.315Z,1.67
2022-09-02T17:16:48.883Z,1.70
2022-09-02T17:19:21.429Z,1.50
2022-09-02T17:21:53.811Z,1.40
2022-09-02T17:24:23.979Z,1.55
2022-09-02T17:26:55.483Z,1.48
2022-09-02T17:29:47.989Z,1.17
2022-09-02T17:32:10.650Z,1.75
2022-09-02T17:34:37.553Z,2.00
2022-09-02T17:37:05.189Z,1.48
2022-09-02T17:39:33.790Z,1.20
2022-09-02T17:42:01.771Z,1.50
2022-09-02T17:44:36.173Z,1.27
2022-09-02T17:47:20.727Z,1.70
2022-09-02T17:49:48.672Z,1.60
2022-09-02T17:52:18.572Z,1.25
2022-09-02T17:54:48.461Z,1.40
2022-09-02T17:57:23.577Z,1.13
2022-09-02T18:00:02.631Z,1.63
2022-09-02T18:02:35.608Z,1.40
2022-09-02T18:05:04.389Z,1.45
2022-09-02T18:08:18.076Z,1.30
2022-09-02T18:10:57.758Z,1.60
2022-09-02T18:13:54.421Z,2.00
2022-09-02T18:16:51.537Z,2.47
2022-09-02T18:19:36.705Z,2.17
2022-09-02T18:22:28.053Z,1.70
2022-09-02T18:25:33.481Z,1.80
2022-09-02T18:28:03.238Z,1.98
2022-09-02T18:30:45.673Z,32.50
2022-09-02T18:33:25.873Z,27.35
2022-09-02T18:36:29.378Z,6.30
2022-09-02T18:39:02.185Z,32.30
2022-09-02T18:41:56.741Z,24.33
2022-09-02T18:44:29.240Z,10.80
2022-09-02T18:47:05.137Z,6.93
2022-09-02T18:49:36.537Z,4.57
2022-09-02T18:52:06.603Z,4.22
2022-09-02T18:54:47.186Z,5.20
2022-09-02T18:57:14.767Z,14.02
2022-09-02T18:59:55.089Z,4.38
2022-09-02T19:02:32.745Z,9.55
2022-09-02T19:05:01.385Z,9.93
2022-09-02T19:07:50.101Z,6.28
2022-09-02T19:10:16.844Z,3.00
2022-09-02T19:12:44.276Z,2.90
2022-09-02T19:15:13.089Z,14.30
2022-09-02T19:17:40.504Z,20.00
2022-09-02T19:20:09.006Z,55.15
2022-09-02T19:22:43.121Z,34.50
2022-09-02T19:25:15.365Z,9.68
2022-09-02T19:27:44.335Z,25.98
2022-09-02T19:30:18.657Z,10.15
2022-09-02T19:32:47.742Z,4.35
2022-09-02T19:35:17.242Z,5.75
2022-09-02T19:37:46.896Z,5.40
2022-09-02T19:40:28.065Z,3.95
2022-09-02T19:42:55.113Z,2.60
2022-09-02T19:45:22.900Z,1.70
2022-09-02T19:48:06.471Z,1.65
2022-09-02T19:50:37.220Z,1.90
2022-09-02T19:53:04.092Z,1.73
2022-09-02T19:55:33.521Z,1.52
2022-09-02T19:58:00.298Z,1.70
2022-09-02T20:00:27.878Z,1.60
2022-09-02T20:02:55.270Z,1.60
2022-09-02T20:05:24.369Z,2.13
2022-09-02T20:07:51.780Z,1.63
2022-09-02T20:10:20.389Z,8.13
2022-09-02T20:12:51.843Z,22.58
2022-09-02T20:15:20.536Z,37.83
2022-09-02T20:17:47.344Z,48.80
2022-09-02T20:20:22.720Z,11.52
2022-09-02T20:22:57.415Z,11.57
2022-09-02T20:25:36.705Z,17.00
2022-09-02T20:28:23.022Z,3.35
2022-09-02T20:30:58.071Z,3.67
2022-09-02T20:33:34.900Z,4.68
2022-09-02T20:36:06.600Z,3.92
2022-09-02T20:39:19.720Z,2.08
2022-09-02T20:42:19.741Z,2.05
2022-09-02T20:45:02.324Z,1.73
2022-09-02T20:47:49.308Z,1.77
2022-09-02T20:50:36.268Z,1.35
2022-09-02T20:53:17.759Z,1.55
2022-09-02T20:56:01.784Z,1.30
2022-09-02T20:58:42.472Z,1.48
2022-09-02T21:01:21.744Z,1.85
2022-09-02T21:04:07.286Z,9.40
2022-09-02T21:06:40.169Z,8.45
2022-09-02T21:09:12.577Z,10.63
2022-09-02T21:11:53.260Z,11.27
2022-09-02T21:14:28.601Z,20.95
2022-09-02T21:17:03.825Z,30.75
2022-09-02T21:19:41.493Z,24.67
2022-09-02T21:22:19.687Z,13.30
2022-09-02T21:24:57.470Z,2.78
2022-09-02T21:27:35.386Z,4.15
2022-09-02T21:30:07.999Z,1.70
2022-09-02T21:32:38.807Z,2.55
2022-09-02T21:35:10.832Z,2.00
2022-09-02T21:37:39.873Z,1.88
2022-09-02T21:40:11.352Z,2.15
2022-09-02T21:43:05.593Z,1.70
2022-09-02T21:45:55.169Z,1.58
2022-09-02T21:48:32.145Z,1.67
2022-09-02T21:51:01.709Z,1.15
2022-09-02T21:54:04.145Z,1.55
2022-09-02T21:56:40.025Z,1.30
2022-09-02T21:59:12.436Z,1.30
2022-09-02T22:01:59.579Z,1.48
2022-09-02T22:04:44.721Z,1.23
2022-09-02T22:07:19.201Z,1.08
2022-09-02T22:09:52.780Z,1.13
2022-09-02T22:12:19.954Z,14.30
2022-09-02T22:14:56.101Z,14.07
2022-09-02T22:17:51.600Z,5.55
2022-09-02T22:20:22.203Z,4.50
2022-09-02T22:23:00.011Z,2.58
2022-09-02T22:25:29.621Z,2.45
2022-09-02T22:28:04.900Z,1.80
2022-09-02T22:30:35.917Z,6.40
2022-09-02T22:33:11.792Z,9.48
2022-09-02T22:35:58.530Z,4.68
2022-09-02T22:38:41.999Z,2.30
2022-09-02T22:41:41.532Z,14.85
2022-09-02T22:44:17.057Z,2.65
2022-09-02T22:47:14.124Z,4.88
2022-09-02T22:50:05.432Z,2.33
2022-09-02T22:52:46.376Z,3.78
2022-09-02T22:55:26.833Z,8.18
2022-09-02T22:58:30.826Z,2.25
2022-09-02T23:01:03.994Z,3.33
2022-09-02T23:04:05.720Z,35.65
2022-09-02T23:06:32.952Z,8.40
2022-09-02T23:09:09.239Z,5.85
2022-09-02T23:11:41.961Z,2.50
2022-09-02T23:14:27.636Z,2.75
2022-09-02T23:17:20.426Z,2.67
2022-09-02T23:20:02.795Z,2.65
2022-09-02T23:23:12.009Z,1.98
2022-09-02T23:25:55.023Z,2.20
2022-09-02T23:28:38.330Z,2.42
2022-09-02T23:31:26.954Z,1.60
2022-09-02T23:34:30.927Z,1.50
2022-09-02T23:37:10.227Z,1.40
2022-09-02T23:40:02.864Z,1.50
2022-09-02T23:42:30.720Z,1.17
2022-09-02T23:45:02.749Z,1.30
2022-09-02T23:47:42.998Z,1.38
2022-09-02T23:50:25.064Z,1.65
2022-09-02T23:52:58.750Z,1.70
2022-09-02T23:55:48.673Z,1.33
2022-09-02T23:58:18.547Z,1.38
